Flight Sim Network - CZST Airport Info

    CZST (Stewart Airport)  Login to use Map Selector
   
   Glacier Air - Stewart

  RUNWAY INFORMATION    |    Airport Elevation : 24ft    |    LAT : 55.935410448  /  LON : -129.982434511
Runway Number 18 / 36 Runway Width 75' Runway Length 3900'
Lighted Runway No Runway StatusOpen Runway Surface Asphalt
  CLOSE ALTERNATE AIRPORTS
ICAODistanceAirport NameLongest RWRW SurfaceMAP
4Z72NMHyder Seaplane Base10000FTWater
KBE53NMBell Island Hot Springs Seaplane Base10600FTWater
CAB558NMBronson Creek Airport5000FTGravel
13Z59NMLoring Seaplane Base10000FTWater
78K61NMYes Bay Lodge Seaplane Base5000FTWater
5KE67NMKetchikan Harbor Seaplane Base10000FTWater
8K968NMMurphys Pullout Seaplane Base10000FTWater
9C068NMPeninsula Point Pullout Seaplane Base9000FTWater
PAKT68NMKetchikan International Airport9500FTWater
MTM73NMMetlakatla10000FTWater
  AIRPORT WEATHER
57°F | 14°C
Temperature
71%
Humidity
29" | 1015mb
Pressure
14sm
Visibility
VFR
Flight Rules
FEW @ 2000ft
Initial Clouds
FAIR
Conditions
Wind Info
7/23/24 17:00Z
Updated

CZST 231700Z 21005KT 180V260 14SM FEW020 BKN054 OVC065 14/09 A2997 RMK SC2SC3SC3 SLP151
  AIRPORT FREQUENCIES
NameFrequency
MULTICOM123.200

Powered by Virtual Airlines Manager